Time;durP1;ratioP1;P1;durP2;ratioP2;P2;SDS_P1;SDS_P2;PMS_P1;PMS_P2;Temp;Humidity;BMP_temperature;BMP_pressure;BME280_temperature;BME280_humidity;BME280_pressure;Samples;Min_cycle;Max_cycle;Signal;HPM_P1;HPM_P2
2022/09/27 00:01:46;;;;;;;1.40;1.40;;;11.20;6.20;;;;;;5025560;28;20195;-79
2022/09/27 00:04:16;;;;;;;1.53;1.43;;;11.30;5.50;;;;;;5022209;28;20835;-79
2022/09/27 00:06:52;;;;;;;1.63;1.53;;;11.30;7.40;;;;;;5034125;28;20941;-79
2022/09/27 00:09:45;;;;;;;2.87;1.40;;;11.30;7.10;;;;;;5086592;28;20428;-87
2022/09/27 00:12:16;;;;;;;1.67;1.57;;;11.30;7.90;;;;;;5082035;28;20413;-87
2022/09/27 00:14:46;;;;;;;3.37;1.70;;;11.20;7.70;;;;;;5080306;28;20421;-87
2022/09/27 00:17:22;;;;;;;1.67;1.40;;;11.20;9.70;;;;;;5078489;28;20933;-86
2022/09/27 00:20:15;;;;;;;1.60;1.50;;;11.30;13.60;;;;;;5089790;28;20428;-86
2022/09/27 00:22:47;;;;;;;1.97;1.70;;;11.30;7.80;;;;;;5088286;28;20959;-79
2022/09/27 00:25:16;;;;;;;1.73;1.37;;;11.30;6.50;;;;;;5082867;28;20738;-79
2022/09/27 00:27:58;;;;;;;1.40;1.30;;;11.30;7.80;;;;;;5080685;28;20457;-79
2022/09/27 00:30:28;;;;;;;1.07;1.07;;;11.40;5.10;;;;;;5073877;28;20828;-79
2022/09/27 00:33:15;;;;;;;1.30;1.20;;;11.50;3.40;;;;;;5090812;28;20423;-79
2022/09/27 00:35:52;;;;;;;1.60;1.50;;;11.40;1.00;;;;;;5075745;28;20401;-79
2022/09/27 00:38:52;;;;;;;1.50;1.40;;;11.50;1.00;;;;;;5085924;28;20420;-86
2022/09/27 00:41:45;;;;;;;1.20;1.13;;;11.40;1.90;;;;;;5082195;28;20973;-87
2022/09/27 00:44:51;;;;;;;1.27;1.17;;;11.40;1.40;;;;;;5077725;28;20452;-87
2022/09/27 00:47:30;;;;;;;1.60;1.50;;;11.40;2.60;;;;;;5092128;28;20431;-87
2022/09/27 00:53:26;;;;;;;1.83;1.20;;;11.50;5.10;;;;;;5075884;28;20420;-79
2022/09/27 00:56:15;;;;;;;1.63;1.20;;;11.50;1.00;;;;;;5081932;28;20417;-79
2022/09/27 00:58:46;;;;;;;1.30;1.20;;;11.50;2.50;;;;;;5074989;28;20432;-79
2022/09/27 01:01:14;;;;;;;1.57;1.43;;;11.50;1.70;;;;;;5085432;28;20486;-79
2022/09/27 01:03:55;;;;;;;1.40;1.10;;;11.60;1.40;;;;;;5078602;28;20452;-79
2022/09/27 01:06:28;;;;;;;4.40;1.20;;;11.50;1.00;;;;;;5086980;28;20507;-79
2022/09/27 01:09:11;;;;;;;1.20;1.00;;;11.60;1.00;;;;;;5085389;28;20417;-87
2022/09/27 01:18:37;;;;;;;2.00;1.00;;;11.50;2.80;;;;;;5088399;28;20444;-87
2022/09/27 01:21:21;;;;;;;2.60;1.50;;;11.50;2.80;;;;;;5088479;28;20408;-87
2022/09/27 01:24:39;;;;;;;1.57;1.23;;;11.50;3.30;;;;;;5087748;28;20473;-79
2022/09/27 01:27:14;;;;;;;0.93;0.93;;;11.50;3.60;;;;;;5032092;28;20404;-78
2022/09/27 01:33:33;;;;;;;1.30;1.20;;;11.50;4.60;;;;;;5012187;28;20420;-78
2022/09/27 01:36:15;;;;;;;2.93;1.07;;;11.50;4.30;;;;;;5004338;28;20448;-79
2022/09/27 01:39:19;;;;;;;1.00;1.00;;;11.50;6.20;;;;;;5012487;28;20424;-86
2022/09/27 01:45:31;;;;;;;3.63;1.50;;;11.30;10.50;;;;;;5003141;28;20439;-86
2022/09/27 01:54:51;;;;;;;0.87;0.87;;;11.40;4.80;;;;;;5008611;28;20448;-86
2022/09/27 01:57:56;;;;;;;1.30;1.20;;;11.40;7.70;;;;;;5026309;28;20429;-86
2022/09/27 02:00:47;;;;;;;2.10;0.90;;;11.30;11.80;;;;;;4998108;28;20946;-87
2022/09/27 02:06:41;;;;;;;1.20;1.10;;;11.30;9.90;;;;;;5088176;28;20861;-87
2022/09/27 02:09:51;;;;;;;1.00;1.00;;;11.30;14.70;;;;;;5087286;28;20436;-80
2022/09/27 02:12:22;;;;;;;1.37;1.27;;;11.30;16.40;;;;;;5077739;28;20429;-79
2022/09/27 02:14:59;;;;;;;2.20;1.07;;;11.30;17.00;;;;;;5073136;28;20784;-79
2022/09/27 02:17:54;;;;;;;1.20;1.10;;;11.30;16.20;;;;;;5088841;28;20415;-78
2022/09/27 02:20:49;;;;;;;1.53;1.00;;;11.20;15.80;;;;;;5080780;28;20449;-79
2022/09/27 02:23:21;;;;;;;5.27;1.60;;;11.20;15.80;;;;;;5079662;28;20472;-84
2022/09/27 02:26:00;;;;;;;9.77;1.60;;;11.30;17.60;;;;;;5080014;28;20444;-79
2022/09/27 02:28:37;;;;;;;2.10;0.90;;;11.30;18.80;;;;;;5086220;28;20439;-78
2022/09/27 02:31:39;;;;;;;9.90;1.27;;;11.20;18.70;;;;;;5072056;28;20421;-79
2022/09/27 02:34:14;;;;;;;4.87;1.10;;;11.20;16.70;;;;;;5073636;28;20413;-79
2022/09/27 02:36:58;;;;;;;5.13;1.40;;;11.20;17.70;;;;;;5077882;28;20428;-80
2022/09/27 02:40:15;;;;;;;4.20;1.17;;;11.20;18.40;;;;;;5075000;28;20516;-87
2022/09/27 02:43:17;;;;;;;3.33;1.10;;;11.20;20.80;;;;;;5092538;28;20448;-87
2022/09/27 02:46:15;;;;;;;6.80;1.30;;;11.20;20.30;;;;;;5088274;28;20417;-87
2022/09/27 02:52:41;;;;;;;6.43;1.53;;;11.20;18.80;;;;;;5087805;28;20399;-86
2022/09/27 02:55:18;;;;;;;1.47;1.37;;;11.20;17.70;;;;;;5086882;28;20789;-79
2022/09/27 02:58:18;;;;;;;4.90;1.60;;;11.20;18.10;;;;;;5073985;28;20516;-79
2022/09/27 03:01:15;;;;;;;3.23;1.60;;;11.20;14.30;;;;;;5086401;28;20427;-78
2022/09/27 03:04:14;;;;;;;6.73;1.50;;;11.20;15.50;;;;;;5096739;28;20468;-79
2022/09/27 03:06:59;;;;;;;3.00;1.50;;;11.20;16.70;;;;;;5080196;28;20429;-79
2022/09/27 03:09:47;;;;;;;3.87;1.87;;;11.20;19.20;;;;;;5084095;28;20474;-87
2022/09/27 03:13:04;;;;;;;11.43;2.30;;;11.20;18.50;;;;;;5073693;28;21056;-87
2022/09/27 03:15:40;;;;;;;3.03;1.40;;;11.20;17.00;;;;;;5076977;28;20429;-87
2022/09/27 03:18:16;;;;;;;15.70;2.70;;;11.20;18.30;;;;;;5073566;28;20428;-87
2022/09/27 03:21:03;;;;;;;4.67;1.73;;;11.20;16.30;;;;;;5084171;28;20422;-87
2022/09/27 03:23:29;;;;;;;4.13;1.90;;;11.30;16.40;;;;;;5081782;28;20464;-87
2022/09/27 03:25:58;;;;;;;4.47;1.53;;;11.30;18.80;;;;;;5081376;28;20428;-78
2022/09/27 03:28:28;;;;;;;3.93;1.70;;;11.30;15.00;;;;;;5083275;28;20428;-79
2022/09/27 03:30:58;;;;;;;4.97;1.67;;;11.20;17.90;;;;;;5085611;28;20429;-78
2022/09/27 03:33:28;;;;;;;2.13;1.47;;;11.20;14.50;;;;;;5076258;28;20940;-79
2022/09/27 03:36:04;;;;;;;3.17;1.30;;;11.30;13.50;;;;;;5076355;28;20566;-79
2022/09/27 03:38:41;;;;;;;5.00;1.37;;;11.20;6.80;;;;;;5086712;28;20400;-79
2022/09/27 03:41:16;;;;;;;18.53;1.23;;;11.20;6.70;;;;;;5096744;28;20840;-87
2022/09/27 03:43:42;;;;;;;2.20;1.27;;;11.10;4.60;;;;;;5080052;28;20469;-88
2022/09/27 03:46:34;;;;;;;1.07;0.90;;;11.20;1.00;;;;;;5104733;28;20551;-88
2022/09/27 03:48:59;;;;;;;1.30;1.20;;;11.10;1.00;;;;;;5095796;28;20177;-88
2022/09/27 03:54:47;;;;;;;2.20;1.20;;;11.00;1.00;;;;;;5076831;28;20190;-88
2022/09/27 03:57:13;;;;;;;1.33;1.00;;;11.00;1.00;;;;;;5079602;28;20433;-87
2022/09/27 04:00:04;;;;;;;1.57;1.10;;;10.90;1.00;;;;;;5076189;28;20191;-87
2022/09/27 04:02:46;;;;;;;1.33;1.17;;;11.00;1.00;;;;;;5093903;28;20624;-87
2022/09/27 04:05:27;;;;;;;3.27;1.30;;;11.00;1.00;;;;;;5095024;28;20431;-87
2022/09/27 04:07:58;;;;;;;1.20;1.10;;;10.90;1.00;;;;;;5080402;28;20425;-87
2022/09/27 04:11:16;;;;;;;4.37;0.90;;;10.80;1.00;;;;;;5075376;28;20835;-87
2022/09/27 04:13:43;;;;;;;9.10;0.80;;;10.80;1.00;;;;;;5081865;28;20466;-87
2022/09/27 04:16:09;;;;;;;5.43;0.90;;;10.80;1.00;;;;;;5084764;28;20442;-87
2022/09/27 04:18:46;;;;;;;2.57;0.80;;;10.80;1.00;;;;;;5091943;28;20923;-84
2022/09/27 04:21:40;;;;;;;0.80;0.80;;;10.70;1.00;;;;;;5078637;28;20775;-87
2022/09/27 04:24:05;;;;;;;2.70;0.97;;;10.70;1.00;;;;;;5085533;28;20973;-86
2022/09/27 04:26:48;;;;;;;2.93;0.80;;;10.70;1.00;;;;;;5079124;28;20422;-79
2022/09/27 04:29:17;;;;;;;2.00;0.80;;;10.70;1.00;;;;;;5078646;28;20174;-79
2022/09/27 04:31:46;;;;;;;1.00;0.70;;;10.70;1.00;;;;;;5083527;28;20421;-79
2022/09/27 04:34:16;;;;;;;1.77;0.77;;;10.60;1.00;;;;;;5084622;28;20429;-78
2022/09/27 04:36:42;;;;;;;2.07;0.77;;;10.50;1.00;;;;;;5079576;28;20417;-79
2022/09/27 04:39:10;;;;;;;2.87;0.70;;;10.60;1.00;;;;;;5074607;28;20513;-79
2022/09/27 04:41:53;;;;;;;2.83;0.70;;;10.50;1.00;;;;;;5082905;28;20236;-80
2022/09/27 04:44:19;;;;;;;0.50;0.50;;;10.50;1.00;;;;;;5079518;28;20552;-78
2022/09/27 04:47:04;;;;;;;0.90;0.67;;;10.50;1.00;;;;;;5076988;28;20504;-78
2022/09/27 04:49:47;;;;;;;4.27;0.80;;;10.40;1.00;;;;;;5073394;28;20182;-79
2022/09/27 04:52:40;;;;;;;1.13;0.70;;;10.40;1.00;;;;;;5073549;28;20896;-79
2022/09/27 04:55:10;;;;;;;12.77;1.00;;;10.40;1.00;;;;;;5085396;28;20429;-79
2022/09/27 04:57:36;;;;;;;1.63;0.90;;;10.50;1.00;;;;;;5077147;28;20478;-75
2022/09/27 05:00:04;;;;;;;1.27;1.07;;;10.50;1.00;;;;;;5079914;28;20516;-75
2022/09/27 05:02:58;;;;;;;1.87;1.10;;;10.50;1.00;;;;;;5090444;28;20453;-82
2022/09/27 05:05:24;;;;;;;2.10;0.80;;;10.50;1.00;;;;;;5078376;28;20429;-75
2022/09/27 05:07:50;;;;;;;1.80;0.80;;;10.50;1.00;;;;;;5086000;28;20735;-76
2022/09/27 05:10:16;;;;;;;5.03;1.03;;;10.50;1.00;;;;;;5077351;28;20745;-76
2022/09/27 05:12:46;;;;;;;4.40;0.80;;;10.40;1.00;;;;;;5085836;28;20950;-76
2022/09/27 05:15:35;;;;;;;0.97;0.73;;;10.50;1.00;;;;;;5091127;28;20420;-76
2022/09/27 05:18:06;;;;;;;3.07;0.83;;;10.50;1.00;;;;;;5075632;28;20466;-76
2022/09/27 05:20:36;;;;;;;0.70;0.60;;;10.50;1.00;;;;;;5082516;28;20857;-76
2022/09/27 05:23:03;;;;;;;2.60;0.80;;;10.40;1.00;;;;;;5086398;28;20447;-76
2022/09/27 05:25:30;;;;;;;0.60;0.60;;;10.40;1.00;;;;;;5089347;28;20465;-75
2022/09/27 05:27:57;;;;;;;1.47;0.80;;;10.40;1.00;;;;;;5087224;28;21141;-75
2022/09/27 05:30:35;;;;;;;0.70;0.70;;;10.50;1.00;;;;;;5075320;28;20417;-75
2022/09/27 05:33:01;;;;;;;7.47;0.70;;;10.40;1.00;;;;;;5076169;28;20516;-75
2022/09/27 05:35:34;;;;;;;1.83;0.70;;;10.30;1.00;;;;;;5076273;28;20504;-75
2022/09/27 05:38:01;;;;;;;2.50;0.70;;;10.30;1.00;;;;;;5080511;28;20178;-75
2022/09/27 05:40:28;;;;;;;3.07;0.70;;;10.30;1.00;;;;;;5080540;28;20420;-75
2022/09/27 05:42:54;;;;;;;2.57;0.70;;;10.30;1.00;;;;;;5078760;28;20939;-76
2022/09/27 05:45:22;;;;;;;2.10;1.00;;;10.40;1.00;;;;;;5092675;28;20738;-75
2022/09/27 05:47:56;;;;;;;1.97;0.90;;;10.30;1.00;;;;;;5077891;28;20460;-75
2022/09/27 05:50:24;;;;;;;0.90;0.70;;;10.50;1.00;;;;;;5076130;28;20428;-75
2022/09/27 05:52:50;;;;;;;1.17;0.73;;;10.50;1.00;;;;;;5086596;28;20472;-75
2022/09/27 05:55:16;;;;;;;0.83;0.83;;;10.60;1.00;;;;;;5094236;28;20419;-75
2022/09/27 05:58:04;;;;;;;4.63;1.07;;;10.60;1.00;;;;;;5094082;28;20741;-75
2022/09/27 06:00:44;;;;;;;1.27;0.80;;;10.60;1.00;;;;;;5076717;28;20419;-75
2022/09/27 06:03:12;;;;;;;1.20;0.80;;;10.60;1.00;;;;;;5083345;28;20801;-75
2022/09/27 06:05:40;;;;;;;3.23;0.87;;;10.60;1.00;;;;;;5087111;28;20892;-76
2022/09/27 06:08:09;;;;;;;0.70;0.70;;;10.70;1.00;;;;;;5073653;28;20411;-75
2022/09/27 06:10:36;;;;;;;1.93;1.00;;;10.70;1.00;;;;;;5081071;28;20425;-76
2022/09/27 06:13:04;;;;;;;0.70;0.70;;;10.80;1.00;;;;;;5077249;28;20532;-76
2022/09/27 06:15:32;;;;;;;4.97;0.97;;;10.80;1.00;;;;;;5076210;28;20516;-76
2022/09/27 06:18:04;;;;;;;1.67;0.90;;;10.80;1.00;;;;;;5089267;28;20423;-76
2022/09/27 06:20:41;;;;;;;0.80;0.80;;;10.90;1.00;;;;;;5084267;28;20433;-76
2022/09/27 06:23:12;;;;;;;1.03;0.80;;;11.00;1.00;;;;;;5090993;28;20460;-76
2022/09/27 06:25:39;;;;;;;2.83;0.80;;;11.00;1.00;;;;;;5091078;28;20425;-75
2022/09/27 06:28:05;;;;;;;1.70;0.80;;;11.10;1.00;;;;;;5092869;28;20507;-75
2022/09/27 06:30:31;;;;;;;1.80;1.00;;;11.20;1.00;;;;;;5080285;28;20505;-75
2022/09/27 06:33:00;;;;;;;2.13;1.00;;;11.20;1.00;;;;;;5083767;28;20431;-76
2022/09/27 06:35:35;;;;;;;0.87;0.87;;;11.20;1.00;;;;;;5084280;28;20439;-75
2022/09/27 06:38:08;;;;;;;0.97;0.87;;;11.30;1.00;;;;;;5080526;28;20460;-76
2022/09/27 06:40:52;;;;;;;1.43;0.90;;;11.20;1.00;;;;;;5074306;28;20421;-75
2022/09/27 06:43:19;;;;;;;1.07;0.70;;;11.20;1.00;;;;;;5089086;28;20456;-76
2022/09/27 06:45:53;;;;;;;1.73;0.83;;;11.30;1.00;;;;;;5087040;28;20429;-76
2022/09/27 06:48:28;;;;;;;0.70;0.70;;;11.40;1.00;;;;;;5078156;28;20434;-76
2022/09/27 06:50:56;;;;;;;2.40;0.80;;;11.30;1.00;;;;;;5080737;28;20412;-76
2022/09/27 06:53:23;;;;;;;1.00;1.00;;;11.40;1.00;;;;;;5076964;28;20442;-76
2022/09/27 06:55:56;;;;;;;3.97;0.90;;;11.50;1.00;;;;;;5078333;28;20514;-75
2022/09/27 07:01:24;;;;;;;0.90;0.90;;;11.40;1.00;;;;;;5073468;28;20411;-76
2022/09/27 07:03:50;;;;;;;4.93;1.10;;;11.50;1.00;;;;;;5082286;28;20807;-75
2022/09/27 07:06:21;;;;;;;3.10;0.70;;;11.60;1.00;;;;;;5089233;28;20432;-75
2022/09/27 07:08:53;;;;;;;3.13;0.90;;;11.70;1.00;;;;;;5095918;28;20236;-76
2022/09/27 07:11:20;;;;;;;1.93;1.03;;;11.80;1.00;;;;;;5079860;28;20928;-75
2022/09/27 07:13:46;;;;;;;3.90;0.90;;;11.80;1.00;;;;;;5086895;28;20424;-75
2022/09/27 07:16:16;;;;;;;0.70;0.70;;;11.90;1.00;;;;;;5077971;28;20490;-76
2022/09/27 07:18:42;;;;;;;2.50;0.70;;;11.90;1.00;;;;;;5081399;28;20428;-75
2022/09/27 07:21:09;;;;;;;0.60;0.60;;;11.90;1.00;;;;;;5079279;28;20433;-75
2022/09/27 07:23:36;;;;;;;5.23;0.67;;;11.80;1.00;;;;;;5085791;28;20190;-75
2022/09/27 07:26:07;;;;;;;0.80;0.67;;;11.90;1.00;;;;;;5093086;28;20416;-75
2022/09/27 07:28:33;;;;;;;3.03;0.70;;;12.10;1.00;;;;;;5080882;28;20420;-76
2022/09/27 07:31:01;;;;;;;4.23;0.50;;;12.00;1.00;;;;;;5083844;28;20436;-77
2022/09/27 07:33:35;;;;;;;0.73;0.60;;;12.00;1.00;;;;;;5076171;28;20425;-82
2022/09/27 07:36:12;;;;;;;1.37;0.70;;;12.10;1.00;;;;;;5077152;28;20500;-82
2022/09/27 07:38:41;;;;;;;0.90;0.53;;;12.10;1.00;;;;;;5081250;28;20769;-82
2022/09/27 07:41:46;;;;;;;7.80;0.67;;;11.90;1.00;;;;;;5094151;28;20437;-85
2022/09/27 07:44:13;;;;;;;0.77;0.50;;;11.90;1.00;;;;;;5094852;28;20447;-85
2022/09/27 07:46:39;;;;;;;0.70;0.50;;;12.00;1.00;;;;;;5083268;28;20516;-85
2022/09/27 07:49:05;;;;;;;0.60;0.60;;;12.20;1.00;;;;;;5074209;28;20501;-85
2022/09/27 07:51:31;;;;;;;0.60;0.50;;;12.20;1.00;;;;;;5086664;28;20198;-86
2022/09/27 07:53:56;;;;;;;0.70;0.50;;;12.30;1.00;;;;;;5092113;28;20459;-85
2022/09/27 07:56:22;;;;;;;0.60;0.60;;;12.30;1.00;;;;;;5078635;28;20649;-85
2022/09/27 07:58:48;;;;;;;0.97;0.57;;;12.40;1.00;;;;;;5084625;28;20177;-86
2022/09/27 08:01:16;;;;;;;1.80;0.57;;;12.50;1.00;;;;;;5076148;28;20566;-86
2022/09/27 08:03:46;;;;;;;1.13;0.60;;;12.60;1.00;;;;;;5077043;28;20207;-85
2022/09/27 08:06:12;;;;;;;1.47;0.60;;;12.60;1.00;;;;;;5076180;28;20466;-86
2022/09/27 08:08:38;;;;;;;2.07;0.67;;;12.60;1.00;;;;;;5078256;28;20495;-86
2022/09/27 08:11:15;;;;;;;0.80;0.57;;;12.50;1.00;;;;;;5082020;28;20167;-86
2022/09/27 08:13:42;;;;;;;0.70;0.70;;;12.50;1.00;;;;;;5076588;28;20515;-86
2022/09/27 08:16:10;;;;;;;0.97;0.60;;;12.50;1.00;;;;;;5081125;28;20481;-86
2022/09/27 08:18:36;;;;;;;0.57;0.50;;;12.80;1.00;;;;;;5073094;28;20426;-86
2022/09/27 08:21:46;;;;;;;4.10;0.77;;;12.90;1.00;;;;;;5077424;28;20443;-86
2022/09/27 08:24:46;;;;;;;1.33;0.60;;;13.10;1.00;;;;;;5082041;28;20452;-85
2022/09/27 08:27:53;;;;;;;2.60;0.60;;;13.30;1.00;;;;;;5079316;28;20412;-85
2022/09/27 08:30:23;;;;;;;3.53;0.70;;;13.40;1.00;;;;;;5088463;28;20413;-80
2022/09/27 08:33:08;;;;;;;0.60;0.60;;;13.30;1.00;;;;;;5115745;28;20380;-81
2022/09/27 08:36:16;;;;;;;0.90;0.63;;;13.30;1.00;;;;;;5110978;28;20419;-81
2022/09/27 08:38:59;;;;;;;0.50;0.40;;;13.50;1.00;;;;;;5077684;28;21097;-81
2022/09/27 08:41:38;;;;;;;2.37;0.63;;;13.40;1.00;;;;;;5082009;28;20486;-81
2022/09/27 08:44:38;;;;;;;0.80;0.70;;;13.50;1.00;;;;;;5080675;28;20843;-88
2022/09/27 08:47:28;;;;;;;9.33;0.70;;;13.70;1.00;;;;;;5090247;28;20396;-87
2022/09/27 08:50:12;;;;;;;1.23;0.60;;;13.70;1.00;;;;;;5084486;28;20396;-88
2022/09/27 08:56:02;;;;;;;6.63;0.80;;;14.00;1.00;;;;;;5089396;28;20475;-88
2022/09/27 08:59:20;;;;;;;0.70;0.50;;;14.30;1.00;;;;;;5089163;28;20465;-90
2022/09/27 09:02:13;;;;;;;1.30;0.50;;;14.30;1.00;;;;;;5087534;28;20420;-89
2022/09/27 09:05:05;;;;;;;1.00;0.50;;;14.00;1.00;;;;;;5085482;28;20497;-87
2022/09/27 09:14:57;;;;;;;2.93;0.60;;;14.60;1.00;;;;;;5083586;28;20427;-78
2022/09/27 09:17:51;;;;;;;1.03;0.60;;;14.80;1.00;;;;;;5006134;28;20444;-79
2022/09/27 09:20:52;;;;;;;3.47;0.60;;;15.10;1.00;;;;;;5009248;28;20419;-80
2022/09/27 09:23:34;;;;;;;4.00;0.70;;;15.20;1.00;;;;;;5006609;28;20464;-78
2022/09/27 09:26:34;;;;;;;1.07;0.80;;;15.20;1.00;;;;;;5011362;28;20446;-80
2022/09/27 09:29:16;;;;;;;1.90;0.70;;;15.20;1.00;;;;;;5012826;28;20428;-87
2022/09/27 09:31:56;;;;;;;3.03;0.60;;;15.30;1.00;;;;;;5010342;28;20938;-78
2022/09/27 09:34:39;;;;;;;3.27;0.70;;;15.10;1.00;;;;;;5000348;28;20519;-77
2022/09/27 09:37:46;;;;;;;0.60;0.50;;;14.90;1.00;;;;;;5012362;28;20909;-77
2022/09/27 09:40:43;;;;;;;2.33;0.70;;;15.00;1.00;;;;;;5008248;28;20487;-77
2022/09/27 09:43:54;;;;;;;1.93;0.70;;;15.30;1.00;;;;;;5007759;28;20462;-79
2022/09/27 09:46:57;;;;;;;0.93;0.60;;;15.40;1.00;;;;;;4996778;28;20410;-79
2022/09/27 09:49:41;;;;;;;0.83;0.53;;;15.40;1.00;;;;;;4934134;29;20948;-75
2022/09/27 09:52:18;;;;;;;2.07;0.70;;;15.20;1.00;;;;;;4933794;29;20431;-74
2022/09/27 09:54:52;;;;;;;4.23;0.80;;;15.00;1.00;;;;;;4979779;28;20475;-75
2022/09/27 09:57:37;;;;;;;3.03;0.60;;;15.00;1.00;;;;;;5009547;28;20542;-75
2022/09/27 10:00:13;;;;;;;2.87;0.60;;;15.30;1.00;;;;;;5004822;28;20421;-75
2022/09/27 10:02:45;;;;;;;1.40;0.77;;;15.10;1.00;;;;;;5003361;28;20422;-75
2022/09/27 10:05:22;;;;;;;2.97;0.70;;;15.10;1.00;;;;;;5011432;28;20997;-75
2022/09/27 10:07:59;;;;;;;3.07;0.53;;;14.90;1.00;;;;;;5008549;28;20891;-77
2022/09/27 10:10:29;;;;;;;4.87;0.50;;;14.80;1.00;;;;;;5008745;28;20443;-76
2022/09/27 10:13:02;;;;;;;2.20;0.50;;;14.90;1.00;;;;;;5011642;28;20475;-76
2022/09/27 10:15:30;;;;;;;0.80;0.53;;;15.00;1.00;;;;;;5005268;28;20939;-75
2022/09/27 10:17:59;;;;;;;0.67;0.57;;;15.20;1.00;;;;;;5002495;28;20432;-75
2022/09/27 10:20:41;;;;;;;0.80;0.50;;;15.40;1.00;;;;;;5013554;28;20528;-74
2022/09/27 10:23:18;;;;;;;5.80;0.57;;;15.50;1.00;;;;;;5035460;28;20482;-75
2022/09/27 10:26:02;;;;;;;1.13;0.50;;;15.80;1.00;;;;;;5079713;28;20477;-74
2022/09/27 10:28:32;;;;;;;3.07;0.60;;;16.10;1.00;;;;;;5080917;28;20830;-75
2022/09/27 10:31:17;;;;;;;0.60;0.50;;;16.30;1.00;;;;;;5078641;28;20482;-75
2022/09/27 10:34:00;;;;;;;1.00;0.50;;;16.70;1.00;;;;;;5075241;28;20403;-75
2022/09/27 10:36:37;;;;;;;0.70;0.47;;;16.70;1.00;;;;;;5096584;28;20426;-75
2022/09/27 10:39:22;;;;;;;1.07;0.50;;;16.80;1.00;;;;;;5093055;28;20824;-76
2022/09/27 10:41:48;;;;;;;2.03;0.63;;;16.80;1.00;;;;;;5089856;28;20401;-75
2022/09/27 10:44:24;;;;;;;3.33;0.57;;;16.90;1.00;;;;;;5084309;28;20435;-75
2022/09/27 10:47:11;;;;;;;5.60;0.50;;;16.70;1.00;;;;;;5082492;28;20219;-75
2022/09/27 10:49:41;;;;;;;0.60;0.50;;;16.30;1.00;;;;;;5076271;28;20807;-76
2022/09/27 10:52:34;;;;;;;1.13;0.70;;;16.20;1.00;;;;;;5091195;28;20751;-76
2022/09/27 10:55:24;;;;;;;0.97;0.50;;;16.00;1.00;;;;;;5085094;28;20407;-75
2022/09/27 10:57:53;;;;;;;1.20;0.50;;;15.60;1.00;;;;;;5080940;28;20392;-75
2022/09/27 11:00:21;;;;;;;0.60;0.60;;;15.40;1.00;;;;;;5091210;28;20435;-76
2022/09/27 11:02:53;;;;;;;1.47;0.93;;;15.50;1.00;;;;;;5081423;28;20440;-76
2022/09/27 11:05:26;;;;;;;2.40;0.60;;;15.40;1.00;;;;;;5086229;28;20503;-76
2022/09/27 11:08:02;;;;;;;0.70;0.57;;;15.50;1.00;;;;;;5085908;28;20811;-76
2022/09/27 11:10:30;;;;;;;0.60;0.50;;;15.80;1.00;;;;;;5078664;28;20480;-77
2022/09/27 11:13:18;;;;;;;0.40;0.40;;;16.00;1.00;;;;;;5076560;28;20428;-77
2022/09/27 11:16:18;;;;;;;0.80;0.60;;;15.80;1.00;;;;;;5081523;28;20459;-81
2022/09/27 11:18:59;;;;;;;0.53;0.50;;;15.70;1.00;;;;;;5084419;28;20816;-80
2022/09/27 11:21:53;;;;;;;1.47;0.50;;;15.50;1.00;;;;;;5079787;28;20434;-81
2022/09/27 11:25:24;;;;;;;1.33;0.60;;;15.20;1.00;;;;;;5089127;28;20468;-80
2022/09/27 11:28:15;;;;;;;0.80;0.60;;;15.10;1.00;;;;;;4921336;29;20478;-80
2022/09/27 11:31:19;;;;;;;0.60;0.50;;;15.20;1.00;;;;;;4918059;29;20425;-77
2022/09/27 11:34:26;;;;;;;1.73;0.60;;;15.60;1.00;;;;;;4918230;29;20542;-76
2022/09/27 11:37:07;;;;;;;0.50;0.50;;;15.70;1.00;;;;;;4861374;29;20493;-76
2022/09/27 11:39:49;;;;;;;0.63;0.63;;;15.30;1.00;;;;;;4859067;29;20439;-76
2022/09/27 11:42:47;;;;;;;0.60;0.50;;;15.20;1.00;;;;;;4861135;29;20434;-76
2022/09/27 11:45:37;;;;;;;1.73;0.60;;;15.30;1.00;;;;;;4860586;29;20442;-80
2022/09/27 11:48:21;;;;;;;0.67;0.67;;;15.40;1.00;;;;;;4857893;29;20919;-80
2022/09/27 11:51:17;;;;;;;0.77;0.70;;;15.60;1.00;;;;;;4859408;29;20443;-80
2022/09/27 11:53:47;;;;;;;5.23;0.90;;;15.70;1.00;;;;;;4857486;29;20413;-79
2022/09/27 11:56:40;;;;;;;0.90;0.70;;;15.70;1.00;;;;;;4860336;29;20454;-80
2022/09/27 11:59:08;;;;;;;1.90;0.63;;;15.60;1.00;;;;;;4859146;29;20431;-80
2022/09/27 12:01:54;;;;;;;1.30;0.67;;;15.50;1.00;;;;;;4892953;29;20419;-76
2022/09/27 12:04:44;;;;;;;1.17;0.80;;;15.60;1.00;;;;;;4974805;28;20565;-76
2022/09/27 12:07:30;;;;;;;0.90;0.70;;;15.70;1.00;;;;;;5012236;28;20957;-76
2022/09/27 12:10:02;;;;;;;0.80;0.70;;;15.60;1.00;;;;;;5017718;28;20446;-76
2022/09/27 12:12:32;;;;;;;1.73;0.80;;;15.30;1.00;;;;;;5078809;28;20795;-76
2022/09/27 12:15:03;;;;;;;1.37;0.80;;;15.40;1.00;;;;;;5083751;28;20784;-79
2022/09/27 12:17:33;;;;;;;0.77;0.67;;;15.40;1.00;;;;;;5082519;28;20435;-79
2022/09/27 12:20:05;;;;;;;2.43;0.70;;;15.30;1.00;;;;;;5089876;28;20915;-79
2022/09/27 12:22:40;;;;;;;1.13;0.67;;;15.40;1.00;;;;;;5072024;28;20449;-79
2022/09/27 12:25:11;;;;;;;2.70;0.73;;;15.20;1.00;;;;;;5079459;28;20418;-80
2022/09/27 12:27:42;;;;;;;1.07;0.70;;;15.00;1.00;;;;;;5089211;28;20900;-80
2022/09/27 12:30:13;;;;;;;2.10;0.80;;;14.80;1.00;;;;;;5084331;28;20963;-76
2022/09/27 12:33:06;;;;;;;3.27;0.77;;;14.70;1.00;;;;;;5084465;28;20439;-76
2022/09/27 12:35:41;;;;;;;2.03;0.80;;;14.80;1.00;;;;;;5074519;28;20413;-76
2022/09/27 12:38:36;;;;;;;0.97;0.87;;;14.90;1.00;;;;;;5082829;28;20424;-76
2022/09/27 12:41:06;;;;;;;1.10;0.93;;;15.20;1.00;;;;;;5072410;28;20416;-76
2022/09/27 12:43:32;;;;;;;0.90;0.80;;;15.30;1.00;;;;;;5074715;28;20460;-76
2022/09/27 12:46:35;;;;;;;1.70;0.80;;;15.40;1.00;;;;;;5075123;28;20478;-76
2022/09/27 12:49:06;;;;;;;1.60;0.90;;;15.30;1.00;;;;;;5081058;28;20484;-76
2022/09/27 12:51:50;;;;;;;1.70;0.70;;;15.30;1.00;;;;;;5078445;28;20404;-76
2022/09/27 12:54:42;;;;;;;0.87;0.87;;;15.50;1.00;;;;;;5078384;28;20942;-76
2022/09/27 12:57:42;;;;;;;2.10;0.73;;;15.70;1.00;;;;;;5080947;28;20413;-76
2022/09/27 13:00:13;;;;;;;0.70;0.70;;;15.60;1.00;;;;;;5076529;28;20534;-75
2022/09/27 13:03:16;;;;;;;1.23;0.80;;;15.50;1.00;;;;;;5073490;28;20430;-75
2022/09/27 13:06:05;;;;;;;1.23;0.77;;;15.60;1.00;;;;;;5080570;28;20460;-76
2022/09/27 13:08:49;;;;;;;2.60;0.80;;;15.70;1.00;;;;;;5073536;28;20746;-76
2022/09/27 13:11:22;;;;;;;1.90;0.80;;;15.90;1.00;;;;;;5074400;28;20413;-84
2022/09/27 13:13:48;;;;;;;0.70;0.70;;;15.90;1.00;;;;;;5078734;28;20413;-84
2022/09/27 13:16:14;;;;;;;1.87;0.70;;;15.90;1.00;;;;;;5088870;28;20436;-85
2022/09/27 13:19:00;;;;;;;1.33;0.97;;;15.60;1.00;;;;;;5083222;28;20413;-80
2022/09/27 13:21:53;;;;;;;1.10;0.93;;;15.50;1.00;;;;;;5074989;28;20198;-79
2022/09/27 13:24:40;;;;;;;0.77;0.73;;;15.40;1.00;;;;;;5081885;28;20464;-78
2022/09/27 13:27:23;;;;;;;2.47;0.90;;;15.20;1.00;;;;;;5073255;28;20394;-78
2022/09/27 13:29:50;;;;;;;0.70;0.70;;;15.20;1.00;;;;;;5073185;28;20429;-80
2022/09/27 13:32:21;;;;;;;3.17;1.00;;;15.20;1.00;;;;;;5073590;28;20495;-80
2022/09/27 13:34:55;;;;;;;0.80;0.80;;;15.00;1.00;;;;;;5073093;28;20424;-79
2022/09/27 13:37:58;;;;;;;1.73;0.80;;;15.10;1.00;;;;;;5080253;28;20777;-80
2022/09/27 13:40:26;;;;;;;3.23;0.80;;;15.00;1.00;;;;;;5074008;28;20792;-79
2022/09/27 13:43:09;;;;;;;1.20;0.73;;;14.90;1.00;;;;;;5093049;28;20386;-80
2022/09/27 13:45:54;;;;;;;14.40;3.60;;;14.80;1.00;;;;;;5087983;28;20440;-77
2022/09/27 13:48:42;;;;;;;1.57;0.80;;;15.00;1.00;;;;;;5086424;28;20435;-77
2022/09/27 13:51:38;;;;;;;0.80;0.80;;;15.00;1.00;;;;;;5081790;28;20429;-77
2022/09/27 13:54:25;;;;;;;3.63;0.70;;;15.10;1.00;;;;;;5009574;28;20423;-77
2022/09/27 13:56:54;;;;;;;1.80;0.90;;;14.90;1.00;;;;;;5010771;28;20526;-78
2022/09/27 13:59:42;;;;;;;1.77;0.87;;;14.60;1.00;;;;;;5009225;28;20451;-77
2022/09/27 14:02:07;;;;;;;1.00;0.63;;;14.60;1.00;;;;;;5010930;28;20431;-79
2022/09/27 14:04:42;;;;;;;1.57;0.53;;;14.60;1.00;;;;;;4982717;28;20479;-79
2022/09/27 14:07:15;;;;;;;2.40;0.80;;;14.80;1.00;;;;;;5009509;28;20243;-79
2022/09/27 14:09:45;;;;;;;0.50;0.50;;;14.90;1.00;;;;;;5010526;28;20439;-79
2022/09/27 14:12:24;;;;;;;0.67;0.67;;;14.80;1.00;;;;;;4989541;28;20528;-79
2022/09/27 14:15:01;;;;;;;0.50;0.40;;;14.90;1.00;;;;;;5000441;28;20440;-79
2022/09/27 14:17:28;;;;;;;0.97;0.60;;;15.10;1.00;;;;;;5005285;28;20985;-78
2022/09/27 14:19:54;;;;;;;2.63;0.93;;;15.10;1.00;;;;;;5006377;28;20469;-77
2022/09/27 14:22:24;;;;;;;1.30;0.70;;;15.20;1.00;;;;;;4999917;28;20495;-76
2022/09/27 14:24:55;;;;;;;0.50;0.50;;;15.40;1.00;;;;;;5004235;28;20476;-77
2022/09/27 14:27:35;;;;;;;1.47;0.70;;;15.70;1.00;;;;;;5011638;28;21019;-77
2022/09/27 14:30:15;;;;;;;1.47;0.80;;;16.00;1.00;;;;;;5005810;28;20902;-75
2022/09/27 14:32:51;;;;;;;1.43;0.50;;;16.20;1.00;;;;;;5076376;28;20405;-80
2022/09/27 14:38:09;;;;;;;0.80;0.60;;;16.10;1.00;;;;;;5076853;28;20426;-81
2022/09/27 14:41:08;;;;;;;1.00;0.60;;;16.00;1.00;;;;;;5091892;28;20805;-79
2022/09/27 14:43:42;;;;;;;0.80;0.60;;;16.10;1.00;;;;;;5002581;28;20567;-79
2022/09/27 14:46:30;;;;;;;3.50;0.60;;;15.90;1.00;;;;;;5001808;28;20439;-78
2022/09/27 14:48:56;;;;;;;3.43;0.70;;;16.00;1.00;;;;;;5011304;28;20745;-81